createdAt,value
2022-08-10T00:01:16.619Z,5.53
2022-08-10T00:05:18.599Z,5.30
2022-08-10T00:09:21.171Z,5.43
2022-08-10T00:13:23.998Z,5.90
2022-08-10T00:17:25.676Z,5.43
2022-08-10T00:21:27.324Z,5.80
2022-08-10T00:25:28.707Z,5.23
2022-08-10T00:29:30.102Z,5.80
2022-08-10T00:33:31.087Z,5.73
2022-08-10T00:37:32.176Z,5.40
2022-08-10T00:41:33.176Z,6.20
2022-08-10T00:45:35.590Z,6.13
2022-08-10T00:49:37.181Z,5.70
2022-08-10T00:53:38.396Z,6.60
2022-08-10T00:57:40.283Z,6.43
2022-08-10T01:02:08.946Z,7.20
2022-08-10T01:10:18.661Z,6.17
2022-08-10T01:14:49.162Z,6.37
2022-08-10T01:19:06.125Z,5.43
2022-08-10T01:23:35.946Z,6.90
2022-08-10T01:28:09.561Z,5.67
2022-08-10T01:32:13.560Z,6.73
2022-08-10T01:36:18.359Z,5.97
2022-08-10T01:40:24.395Z,7.30
2022-08-10T01:44:32.010Z,6.63
2022-08-10T01:48:45.614Z,6.87
2022-08-10T01:52:49.913Z,7.27
2022-08-10T01:56:54.700Z,6.73
2022-08-10T02:00:58.132Z,6.73
2022-08-10T02:05:02.911Z,6.43
2022-08-10T02:09:07.283Z,8.03
2022-08-10T02:13:10.057Z,6.77
2022-08-10T02:17:59.431Z,6.67
2022-08-10T02:21:18.355Z,7.13
2022-08-10T02:25:41.910Z,6.50
2022-08-10T02:29:25.403Z,7.40
2022-08-10T02:33:27.201Z,8.20
2022-08-10T02:37:30.079Z,6.40
2022-08-10T02:45:01.647Z,7.27
2022-08-10T02:45:50.668Z,6.57
2022-08-10T02:50:01.405Z,6.93
2022-08-10T02:54:08.699Z,7.10
2022-08-10T02:58:19.486Z,7.20
2022-08-10T03:02:30.225Z,8.03
2022-08-10T03:06:41.351Z,6.90
2022-08-10T03:10:44.572Z,7.33
2022-08-10T03:14:46.924Z,7.77
2022-08-10T03:18:49.207Z,7.90
2022-08-10T03:22:51.787Z,7.67
2022-08-10T03:26:54.398Z,7.47
2022-08-10T03:30:57.622Z,8.40
2022-08-10T03:34:59.796Z,9.63
2022-08-10T03:39:00.880Z,7.77
2022-08-10T03:43:03.078Z,7.97
2022-08-10T03:47:16.239Z,7.67
2022-08-10T03:51:10.754Z,7.60
2022-08-10T03:55:12.278Z,7.60
2022-08-10T03:59:16.744Z,11.07
2022-08-10T04:03:18.010Z,15.03
2022-08-10T04:07:20.908Z,10.07
2022-08-10T04:11:21.829Z,9.67
2022-08-10T04:15:24.130Z,9.53
2022-08-10T04:19:27.622Z,9.47
2022-08-10T04:23:32.549Z,8.87
2022-08-10T04:27:34.302Z,10.20
2022-08-10T04:31:37.183Z,7.77
2022-08-10T04:35:41.110Z,7.67
2022-08-10T04:39:43.127Z,7.23
2022-08-10T04:43:45.416Z,7.67
2022-08-10T04:47:57.275Z,8.40
2022-08-10T04:51:49.296Z,7.37
2022-08-10T04:55:50.283Z,7.50
2022-08-10T04:59:51.300Z,7.63
2022-08-10T05:04:36.984Z,8.07
2022-08-10T05:07:56.927Z,7.97
2022-08-10T05:11:58.103Z,7.87
2022-08-10T05:15:59.089Z,7.03
2022-08-10T05:20:02.949Z,8.00
2022-08-10T05:24:03.972Z,6.73
2022-08-10T05:28:06.736Z,6.60
2022-08-10T05:32:08.382Z,5.90
2022-08-10T05:36:09.689Z,6.87
2022-08-10T05:40:11.160Z,6.20
2022-08-10T05:44:12.959Z,6.07
2022-08-10T05:48:58.001Z,6.90
2022-08-10T05:52:17.968Z,6.37
2022-08-10T05:56:19.217Z,6.03
2022-08-10T06:00:39.747Z,5.63
2022-08-10T06:04:29.225Z,6.30
2022-08-10T06:08:35.485Z,6.37
2022-08-10T06:12:54.006Z,5.90
2022-08-10T06:16:44.797Z,5.53
2022-08-10T06:20:46.547Z,5.50
2022-08-10T06:25:18.381Z,5.63
2022-08-10T06:29:03.041Z,5.53
2022-08-10T06:33:03.066Z,4.60
2022-08-10T06:37:06.991Z,4.47
2022-08-10T06:41:13.167Z,4.97
2022-08-10T06:45:30.411Z,4.87
2022-08-10T06:49:32.504Z,4.90
2022-08-10T06:53:53.894Z,4.70
2022-08-10T06:57:40.636Z,4.60
2022-08-10T07:01:51.193Z,4.53
2022-08-10T07:05:51.477Z,4.53
2022-08-10T07:09:55.238Z,4.00
2022-08-10T07:14:16.432Z,4.40
2022-08-10T07:18:03.954Z,4.03
2022-08-10T07:22:06.338Z,5.20
2022-08-10T07:26:09.841Z,4.10
2022-08-10T07:30:12.074Z,4.30
2022-08-10T07:34:28.650Z,4.00
2022-08-10T07:38:25.766Z,4.80
2022-08-10T07:42:30.288Z,4.47
2022-08-10T07:46:34.725Z,3.77
2022-08-10T07:50:40.872Z,4.37
2022-08-10T07:54:44.973Z,4.03
2022-08-10T07:58:52.611Z,4.00
2022-08-10T08:02:55.416Z,4.20
2022-08-10T08:06:59.114Z,3.50
2022-08-10T08:11:02.268Z,3.73
2022-08-10T08:15:14.755Z,4.00
2022-08-10T08:19:26.623Z,3.67
2022-08-10T08:24:10.567Z,3.70
2022-08-10T08:27:19.127Z,3.63
2022-08-10T08:31:22.466Z,3.30
2022-08-10T08:35:25.601Z,3.30
2022-08-10T08:39:27.080Z,2.87
2022-08-10T08:43:41.093Z,3.20
2022-08-10T08:48:06.626Z,3.83
2022-08-10T08:52:20.654Z,2.97
2022-08-10T08:56:28.368Z,3.30
2022-08-10T09:00:36.911Z,2.73
2022-08-10T09:05:06.001Z,3.33
2022-08-10T09:09:22.792Z,3.60
2022-08-10T09:13:33.577Z,3.40
2022-08-10T09:17:44.311Z,3.00
2022-08-10T09:21:58.775Z,2.70
2022-08-10T09:25:55.256Z,2.53
2022-08-10T09:29:59.240Z,2.27
2022-08-10T09:36:25.142Z,2.20
2022-08-10T09:38:54.287Z,2.33
2022-08-10T09:43:25.400Z,2.43
2022-08-10T09:48:00.013Z,2.53
2022-08-10T09:52:02.278Z,2.63
2022-08-10T09:56:28.267Z,2.23
2022-08-10T10:00:33.162Z,2.73
2022-08-10T10:04:58.065Z,2.77
2022-08-10T10:09:17.828Z,2.77
2022-08-10T10:14:02.489Z,2.23
2022-08-10T10:18:08.889Z,2.70
2022-08-10T10:22:30.186Z,2.43
2022-08-10T10:27:00.313Z,2.97
2022-08-10T10:31:16.441Z,2.43
2022-08-10T10:35:43.172Z,2.77
2022-08-10T10:39:48.189Z,2.87
2022-08-10T10:44:27.697Z,3.00
2022-08-10T10:49:09.347Z,2.30
2022-08-10T10:53:25.739Z,2.67
2022-08-10T10:57:59.266Z,2.70
2022-08-10T11:01:46.789Z,2.80
2022-08-10T11:05:51.690Z,2.70
2022-08-10T11:10:04.093Z,2.47
2022-08-10T11:14:26.525Z,2.60
2022-08-10T11:18:15.819Z,2.20
2022-08-10T11:22:39.336Z,2.30
2022-08-10T11:26:52.929Z,2.77
2022-08-10T11:31:13.391Z,2.67
2022-08-10T11:35:46.323Z,2.60
2022-08-10T11:39:54.111Z,2.20
2022-08-10T11:44:02.088Z,2.47
2022-08-10T11:48:53.209Z,2.27
2022-08-10T11:52:46.686Z,2.40
2022-08-10T11:56:51.373Z,2.50
2022-08-10T12:00:57.054Z,2.33
2022-08-10T12:05:18.148Z,2.50
2022-08-10T12:10:09.686Z,2.57
2022-08-10T12:13:31.751Z,2.63
2022-08-10T12:17:39.448Z,2.10
2022-08-10T12:21:44.297Z,2.33
2022-08-10T12:25:58.835Z,2.30
2022-08-10T12:30:06.560Z,2.20
2022-08-10T12:34:20.813Z,2.40
2022-08-10T12:38:41.172Z,2.13
2022-08-10T12:43:02.647Z,2.00
2022-08-10T12:47:14.704Z,2.17
2022-08-10T12:51:28.533Z,2.50
2022-08-10T12:55:31.259Z,2.00
2022-08-10T12:59:43.463Z,2.17
2022-08-10T13:04:21.570Z,2.67
2022-08-10T13:08:07.295Z,2.77
2022-08-10T13:12:36.393Z,2.17
2022-08-10T13:16:04.917Z,2.70
2022-08-10T13:20:14.699Z,2.40
2022-08-10T13:24:19.641Z,2.63
2022-08-10T13:28:35.513Z,2.60
2022-08-10T13:32:31.198Z,2.90
2022-08-10T13:36:35.976Z,2.63
2022-08-10T13:40:38.639Z,3.20
2022-08-10T13:44:45.698Z,2.90
2022-08-10T13:48:47.064Z,2.37
2022-08-10T13:52:54.438Z,2.60
2022-08-10T13:56:57.969Z,2.50
2022-08-10T14:01:01.238Z,2.40
2022-08-10T14:05:05.442Z,3.50
2022-08-10T14:09:09.806Z,2.63
2022-08-10T14:13:14.981Z,2.63
2022-08-10T14:17:20.136Z,2.47
2022-08-10T14:21:22.124Z,2.50
2022-08-10T14:25:24.043Z,2.87
2022-08-10T14:29:26.826Z,5.47
2022-08-10T14:33:31.037Z,3.07
2022-08-10T14:37:37.852Z,2.97
2022-08-10T14:42:02.547Z,2.93
2022-08-10T14:45:47.080Z,2.47
2022-08-10T14:49:57.057Z,2.80
2022-08-10T14:54:01.344Z,2.50
2022-08-10T14:58:19.292Z,2.33
2022-08-10T15:02:38.905Z,2.93
2022-08-10T15:06:18.149Z,3.07
2022-08-10T15:10:22.023Z,2.40
2022-08-10T15:14:42.996Z,2.47
2022-08-10T15:18:30.276Z,2.80
2022-08-10T15:22:39.472Z,2.57
2022-08-10T15:26:36.959Z,2.60
2022-08-10T15:30:42.452Z,3.00
2022-08-10T15:35:04.709Z,2.70
2022-08-10T15:40:26.080Z,3.20
2022-08-10T15:43:36.884Z,3.10
2022-08-10T15:47:45.830Z,3.10
2022-08-10T15:52:04.551Z,3.27
2022-08-10T15:56:12.737Z,3.00
2022-08-10T16:00:17.745Z,3.10
2022-08-10T16:04:31.849Z,3.90
2022-08-10T16:08:29.322Z,3.13
2022-08-10T16:12:34.065Z,3.20
2022-08-10T16:16:37.045Z,4.33
2022-08-10T16:20:55.270Z,2.83
2022-08-10T16:24:55.915Z,3.80
2022-08-10T16:29:12.715Z,3.30
2022-08-10T16:33:17.537Z,3.80
2022-08-10T16:37:21.574Z,3.13
2022-08-10T16:42:03.813Z,3.00
2022-08-10T16:45:33.143Z,3.20
2022-08-10T16:49:37.447Z,3.80
2022-08-10T16:53:42.605Z,4.23
2022-08-10T16:57:47.211Z,3.73
2022-08-10T17:01:51.679Z,4.30
2022-08-10T17:06:11.347Z,3.70
2022-08-10T17:10:01.689Z,4.27
2022-08-10T17:14:06.621Z,3.33
2022-08-10T17:18:12.753Z,3.93
2022-08-10T17:22:17.852Z,3.70
2022-08-10T17:26:35.418Z,3.50
2022-08-10T17:30:35.071Z,4.40
2022-08-10T17:34:34.877Z,3.97
2022-08-10T17:38:37.549Z,4.10
2022-08-10T17:42:40.379Z,4.67
2022-08-10T17:46:44.476Z,3.97
2022-08-10T17:50:48.507Z,3.90
2022-08-10T17:55:02.288Z,3.73
2022-08-10T17:59:15.175Z,3.80
2022-08-10T18:03:25.063Z,5.47
2022-08-10T18:07:35.358Z,3.67
2022-08-10T18:11:42.908Z,3.43
2022-08-10T18:15:46.524Z,4.30
2022-08-10T18:19:54.145Z,4.37
2022-08-10T18:24:04.835Z,4.00
2022-08-10T18:28:09.833Z,4.07
2022-08-10T18:32:11.603Z,4.03
2022-08-10T18:36:15.746Z,3.87
2022-08-10T18:40:18.045Z,3.43
2022-08-10T18:44:21.984Z,4.07
2022-08-10T18:48:27.281Z,4.00
2022-08-10T18:52:31.979Z,3.63
2022-08-10T18:56:52.438Z,3.30
2022-08-10T19:01:17.185Z,3.33
2022-08-10T19:05:30.896Z,3.97
2022-08-10T19:09:45.783Z,3.80
2022-08-10T19:14:07.177Z,3.67
2022-08-10T19:18:29.530Z,3.55
2022-08-10T19:23:05.704Z,3.13
2022-08-10T19:27:21.953Z,4.30
2022-08-10T19:31:52.461Z,3.20
2022-08-10T19:36:21.506Z,3.83
2022-08-10T19:40:44.054Z,3.50
2022-08-10T19:45:12.455Z,3.93
2022-08-10T19:49:40.036Z,4.27
2022-08-10T19:54:05.110Z,4.03
2022-08-10T19:58:29.041Z,4.10
2022-08-10T20:02:33.914Z,3.40
2022-08-10T20:06:41.636Z,4.07
2022-08-10T20:10:58.375Z,3.50
2022-08-10T20:15:33.547Z,4.30
2022-08-10T20:19:53.615Z,3.70
2022-08-10T20:24:01.631Z,3.63
2022-08-10T20:28:12.655Z,3.57
2022-08-10T20:32:25.891Z,3.67
2022-08-10T20:36:31.252Z,3.50
2022-08-10T20:40:44.909Z,3.80
2022-08-10T20:44:53.195Z,3.90
2022-08-10T20:49:07.065Z,3.87
2022-08-10T20:53:10.571Z,4.30
2022-08-10T20:57:55.567Z,3.90
2022-08-10T21:02:06.820Z,3.90
2022-08-10T21:06:06.733Z,3.53
2022-08-10T21:10:47.226Z,4.20
2022-08-10T21:15:10.232Z,4.07
2022-08-10T21:19:20.962Z,4.03
2022-08-10T21:23:30.292Z,4.70
2022-08-10T21:28:07.147Z,4.23
2022-08-10T21:32:20.745Z,4.57
2022-08-10T21:36:28.210Z,4.37
2022-08-10T21:41:18.100Z,3.93
2022-08-10T21:45:16.814Z,3.73
2022-08-10T21:49:42.387Z,5.13
2022-08-10T21:54:09.242Z,4.40
2022-08-10T21:58:38.499Z,5.00
2022-08-10T22:02:59.193Z,5.47
2022-08-10T22:07:21.179Z,4.30
2022-08-10T22:11:45.951Z,4.20
2022-08-10T22:16:12.815Z,5.37
2022-08-10T22:20:36.182Z,4.40
2022-08-10T22:25:16.724Z,4.80
2022-08-10T22:29:42.586Z,4.60
2022-08-10T22:34:18.726Z,4.50
2022-08-10T22:38:47.455Z,4.93
2022-08-10T22:43:11.145Z,5.47
2022-08-10T22:47:33.722Z,5.43
2022-08-10T22:51:41.348Z,5.63
2022-08-10T22:56:04.470Z,4.73
2022-08-10T23:00:17.984Z,4.97
2022-08-10T23:04:44.830Z,4.70
2022-08-10T23:08:50.030Z,5.00
2022-08-10T23:12:57.626Z,5.17
2022-08-10T23:17:20.090Z,4.63
2022-08-10T23:21:26.953Z,4.53
2022-08-10T23:25:32.854Z,5.03
2022-08-10T23:29:35.587Z,5.10
2022-08-10T23:33:40.565Z,5.47
2022-08-10T23:37:43.039Z,5.50
2022-08-10T23:41:46.752Z,5.00
2022-08-10T23:45:54.295Z,4.70
2022-08-10T23:49:57.980Z,5.70
2022-08-10T23:54:11.532Z,4.90
2022-08-10T23:58:33.107Z,5.60
